createdAt,value
2018-04-06T00:01:04.814Z,11.5
2018-04-06T00:11:04.637Z,9.3
2018-04-06T00:21:04.587Z,6.7
2018-04-06T00:31:04.416Z,4.9
2018-04-06T00:41:05.226Z,4.3
2018-04-06T00:51:04.971Z,3.7
2018-04-06T01:01:04.849Z,3.1
2018-04-06T01:11:04.718Z,3.6
2018-04-06T01:21:04.758Z,4.6
2018-04-06T01:31:04.571Z,3.8
2018-04-06T01:41:04.399Z,4.0
2018-04-06T01:51:05.399Z,4.1
2018-04-06T02:01:05.225Z,4.2
2018-04-06T02:11:05.055Z,5.3
2018-04-06T02:21:05.212Z,6.6
2018-04-06T02:31:05.235Z,6.7
2018-04-06T02:41:05.170Z,11.2
2018-04-06T02:51:05.056Z,12.2
2018-04-06T03:01:04.899Z,13.0
2018-04-06T03:11:04.971Z,13.0
2018-04-06T03:21:04.867Z,14.4
2018-04-06T03:31:04.942Z,13.6
2018-04-06T03:41:04.710Z,13.4
2018-04-06T03:51:04.896Z,12.8
2018-04-06T04:01:04.666Z,11.4
2018-04-06T04:11:04.575Z,13.6
2018-04-06T04:21:04.541Z,14.8
2018-04-06T04:31:05.070Z,13.5
2018-04-06T04:41:04.841Z,10.9
2018-04-06T04:51:04.571Z,10.6
2018-04-06T05:01:04.378Z,12.5
2018-04-06T05:11:05.359Z,12.0
2018-04-06T05:21:05.291Z,11.7
2018-04-06T05:31:05.091Z,13.5
2018-04-06T05:41:04.883Z,15.2
2018-04-06T05:51:04.559Z,13.5
2018-04-06T06:01:04.345Z,14.1
2018-04-06T06:11:05.151Z,13.5
2018-04-06T06:21:05.090Z,12.7
2018-04-06T06:31:04.865Z,12.5
2018-04-06T06:41:04.662Z,12.8
2018-04-06T06:51:04.449Z,12.0
2018-04-06T07:01:05.248Z,11.0
2018-04-06T07:11:05.035Z,9.8
2018-04-06T07:21:05.002Z,11.1
2018-04-06T07:31:04.726Z,10.0
2018-04-06T07:41:04.739Z,11.1
2018-04-06T07:51:04.511Z,10.7
2018-04-06T08:01:05.249Z,9.8
2018-04-06T08:11:05.037Z,9.5
2018-04-06T08:21:04.954Z,9.6
2018-04-06T08:31:04.835Z,9.3
2018-04-06T08:41:04.568Z,9.3
2018-04-06T08:51:04.373Z,8.9
2018-04-06T09:01:05.498Z,9.5
2018-04-06T09:11:05.323Z,9.0
2018-04-06T09:21:05.346Z,8.9
2018-04-06T09:31:05.194Z,11.3
2018-04-06T09:41:05.023Z,8.6
2018-04-06T09:51:04.949Z,9.4
2018-04-06T10:01:04.741Z,8.7
2018-04-06T10:11:04.767Z,11.9
2018-04-06T10:21:04.639Z,9.1
2018-04-06T10:31:04.449Z,11.8
2018-04-06T10:41:05.790Z,12.0
2018-04-06T10:51:04.615Z,10.3
2018-04-06T11:01:04.441Z,6.3
2018-04-06T11:11:05.302Z,10.4
2018-04-06T11:21:05.276Z,7.8
2018-04-06T11:31:05.113Z,8.5
2018-04-06T11:41:04.970Z,7.0
2018-04-06T11:51:04.832Z,6.4
2018-04-06T12:01:04.700Z,6.0
2018-04-06T12:11:04.699Z,4.9
2018-04-06T12:21:04.752Z,5.3
2018-04-06T12:31:04.655Z,4.9
2018-04-06T12:41:05.156Z,5.2
2018-04-06T12:51:04.966Z,5.3
2018-04-06T13:01:04.823Z,6.0
2018-04-06T13:11:04.613Z,6.1
2018-04-06T13:21:04.635Z,7.5
2018-04-06T13:31:04.443Z,8.5
2018-04-06T13:41:05.288Z,9.1
2018-04-06T13:51:05.297Z,7.8
2018-04-06T14:01:05.218Z,7.7
2018-04-06T14:11:05.316Z,7.8
2018-04-06T14:21:05.576Z,5.9
2018-04-06T14:31:05.608Z,5.8
2018-04-06T14:41:05.433Z,6.2
2018-04-06T14:51:05.279Z,8.0
2018-04-06T15:01:05.620Z,6.0
2018-04-06T15:11:05.477Z,5.7
2018-04-06T15:21:05.574Z,10.1
2018-04-06T15:31:05.446Z,12.6
2018-04-06T15:41:05.283Z,12.3
2018-04-06T15:51:05.112Z,12.2
2018-04-06T16:01:04.949Z,13.9
2018-04-06T16:11:04.848Z,12.0
2018-04-06T16:21:05.025Z,16.1
2018-04-06T16:31:04.845Z,12.9
2018-04-06T16:41:04.681Z,14.4
2018-04-06T16:51:04.484Z,14.8
2018-04-06T17:01:05.314Z,19.2
2018-04-06T17:11:05.160Z,14.6
2018-04-06T17:21:05.118Z,15.6
2018-04-06T17:31:04.965Z,15.8
2018-04-06T17:41:04.723Z,22.0
2018-04-06T17:51:04.593Z,19.6
2018-04-06T18:01:05.383Z,21.9
2018-04-06T18:11:05.229Z,18.5
2018-04-06T18:21:05.107Z,13.6
2018-04-06T18:31:04.940Z,11.1
2018-04-06T18:41:04.740Z,11.6
2018-04-06T18:51:04.539Z,32.5
2018-04-06T19:01:05.313Z,35.7
2018-04-06T19:11:05.328Z,35.4
2018-04-06T19:21:05.329Z,36.9
2018-04-06T19:31:05.209Z,42.7
2018-04-06T19:41:05.056Z,49.6
2018-04-06T19:51:04.883Z,54.6
2018-04-06T20:01:04.724Z,55.0
2018-04-06T20:11:04.585Z,51.9
2018-04-06T20:21:04.534Z,48.2
2018-04-06T20:31:05.396Z,49.0
2018-04-06T20:41:05.210Z,41.4
2018-04-06T20:51:05.049Z,44.0
2018-04-06T21:01:05.280Z,44.9
2018-04-06T21:11:05.081Z,40.8
2018-04-06T21:21:05.052Z,42.8
2018-04-06T21:31:04.874Z,44.8
2018-04-06T21:41:04.709Z,41.0
2018-04-06T21:51:04.476Z,43.3
2018-04-06T22:01:05.311Z,44.9
2018-04-06T22:11:05.057Z,40.7
2018-04-06T22:21:04.967Z,41.2
2018-04-06T22:31:04.778Z,44.1
2018-04-06T22:41:04.577Z,40.0
2018-04-06T22:51:05.557Z,40.2
2018-04-06T23:01:05.283Z,45.0
2018-04-06T23:11:05.091Z,43.4
2018-04-06T23:21:05.008Z,39.6
2018-04-06T23:31:04.798Z,39.1
2018-04-06T23:41:04.623Z,37.9
2018-04-06T23:51:05.328Z,43.6
